Time;durP1;ratioP1;P1;durP2;ratioP2;P2;SDS_P1;SDS_P2;PMS_P1;PMS_P2;Temp;Humidity;BMP_temperature;BMP_pressure;BME280_temperature;BME280_humidity;BME280_pressure;Samples;Min_cycle;Max_cycle;Signal;HPM_P1;HPM_P2
2022/05/03 00:00:18;;;;;;;10.82;7.50;;;18.90;55.90;;;;;;4827020;29;20034;-81
2022/05/03 00:03:02;;;;;;;10.13;7.60;;;18.70;56.60;;;;;;4827405;29;20025;-79
2022/05/03 00:05:45;;;;;;;10.23;7.95;;;18.50;57.20;;;;;;4841685;29;20074;-79
2022/05/03 00:08:29;;;;;;;13.13;8.05;;;18.40;57.50;;;;;;4838273;29;20037;-81
2022/05/03 00:11:23;;;;;;;12.00;8.32;;;18.50;57.80;;;;;;4847242;29;20040;-78
2022/05/03 00:14:25;;;;;;;11.38;7.22;;;18.70;57.70;;;;;;4876104;29;20077;-81
2022/05/03 00:16:53;;;;;;;11.95;8.15;;;18.50;57.90;;;;;;4855475;29;20354;-78
2022/05/03 00:19:19;;;;;;;9.60;7.70;;;18.40;58.00;;;;;;4876541;29;20404;-79
2022/05/03 00:21:45;;;;;;;12.23;8.15;;;18.30;57.80;;;;;;4862915;29;20346;-80
2022/05/03 00:24:11;;;;;;;10.77;8.13;;;18.40;57.90;;;;;;4878004;29;20029;-80
2022/05/03 00:26:37;;;;;;;10.80;8.02;;;18.70;57.60;;;;;;4951589;28;20410;-80
2022/05/03 00:29:04;;;;;;;10.50;7.68;;;18.80;57.30;;;;;;4974536;28;20069;-81
2022/05/03 00:31:30;;;;;;;9.40;8.07;;;18.80;57.40;;;;;;4974379;28;20030;-81
2022/05/03 00:33:57;;;;;;;11.45;7.72;;;18.80;57.50;;;;;;5019190;28;20029;-79
2022/05/03 00:36:23;;;;;;;10.48;8.05;;;18.90;57.00;;;;;;5050094;28;20486;-81
2022/05/03 00:38:50;;;;;;;11.32;8.38;;;19.00;57.20;;;;;;5035730;28;20017;-83
2022/05/03 00:41:40;;;;;;;10.45;8.40;;;19.10;57.20;;;;;;5051756;28;20026;-81
2022/05/03 00:47:20;;;;;;;10.82;7.72;;;19.50;56.20;;;;;;5043402;28;20079;-81
2022/05/03 00:50:04;;;;;;;12.18;7.85;;;19.40;56.40;;;;;;5049934;28;20048;-82
2022/05/03 00:52:58;;;;;;;11.52;8.05;;;19.40;56.50;;;;;;5048599;28;20016;-81
2022/05/03 00:55:29;;;;;;;10.07;7.95;;;19.50;55.80;;;;;;5052632;28;20068;-79
2022/05/03 00:58:02;;;;;;;10.93;7.63;;;19.60;55.20;;;;;;5054558;28;20032;-82
2022/05/03 01:00:31;;;;;;;9.80;7.70;;;19.70;54.90;;;;;;5037468;28;20471;-83
2022/05/03 01:03:07;;;;;;;9.82;7.70;;;19.90;54.70;;;;;;5054659;28;20040;-82
2022/05/03 01:06:03;;;;;;;9.85;7.72;;;19.80;54.60;;;;;;5053895;28;20110;-83
2022/05/03 01:08:41;;;;;;;10.32;7.72;;;19.90;54.40;;;;;;5054287;28;20021;-82
2022/05/03 01:11:25;;;;;;;11.80;8.10;;;19.90;54.50;;;;;;5017712;28;20099;-81
2022/05/03 01:14:10;;;;;;;10.98;7.55;;;19.90;54.30;;;;;;5036057;28;20055;-81
2022/05/03 01:16:46;;;;;;;11.02;7.88;;;19.40;55.20;;;;;;5037199;28;20029;-82
2022/05/03 01:19:34;;;;;;;10.02;7.72;;;19.50;55.30;;;;;;5035644;28;20013;-84
2022/05/03 01:22:06;;;;;;;11.82;7.75;;;19.70;54.90;;;;;;5053239;28;20371;-82
2022/05/03 01:25:00;;;;;;;10.30;7.85;;;19.80;54.90;;;;;;5032011;28;20078;-83
2022/05/03 01:27:52;;;;;;;9.55;7.55;;;19.70;54.60;;;;;;5033437;28;20029;-81
2022/05/03 01:30:18;;;;;;;9.32;7.10;;;19.60;54.40;;;;;;5036595;28;20478;-81
2022/05/03 01:32:45;;;;;;;9.73;7.85;;;19.40;54.60;;;;;;5052755;28;20036;-82
2022/05/03 01:35:14;;;;;;;9.70;8.00;;;19.40;54.70;;;;;;5036212;28;20025;-81
2022/05/03 01:38:06;;;;;;;9.47;7.33;;;19.50;54.40;;;;;;5036441;28;20018;-82
2022/05/03 01:40:46;;;;;;;10.13;7.78;;;19.30;54.80;;;;;;5048126;28;20399;-81
2022/05/03 01:43:21;;;;;;;9.57;7.40;;;19.30;54.90;;;;;;5052421;28;20044;-81
2022/05/03 01:46:08;;;;;;;9.27;7.63;;;18.80;55.30;;;;;;5034758;28;20161;-81
2022/05/03 01:51:57;;;;;;;8.48;7.25;;;18.30;57.10;;;;;;5051647;28;20044;-80
2022/05/03 01:54:56;;;;;;;10.23;8.15;;;18.10;57.50;;;;;;5022654;28;20020;-81
2022/05/03 01:57:52;;;;;;;9.52;7.50;;;18.00;57.80;;;;;;5052205;28;20021;-80
2022/05/03 02:00:22;;;;;;;10.40;8.15;;;18.10;57.70;;;;;;5053160;28;20029;-83
2022/05/03 02:02:57;;;;;;;11.75;7.93;;;18.30;57.40;;;;;;5042639;28;20037;-81
2022/05/03 02:06:02;;;;;;;10.75;8.05;;;18.60;57.00;;;;;;5047577;28;20036;-82
2022/05/03 02:08:43;;;;;;;12.70;8.20;;;18.70;56.80;;;;;;5033648;28;20013;-82
2022/05/03 02:11:12;;;;;;;10.35;8.50;;;18.50;57.10;;;;;;5033578;28;20059;-81
2022/05/03 02:17:22;;;;;;;10.07;8.13;;;18.30;58.20;;;;;;5036852;28;20051;-81
2022/05/03 02:20:01;;;;;;;11.02;8.68;;;18.30;58.80;;;;;;4956560;28;20089;-80
2022/05/03 02:22:45;;;;;;;12.25;8.93;;;18.40;58.60;;;;;;4972445;28;20038;-77
2022/05/03 02:25:20;;;;;;;12.73;8.55;;;18.80;58.10;;;;;;4971609;28;20093;-77
2022/05/03 02:28:15;;;;;;;11.32;8.63;;;18.90;57.70;;;;;;4955781;28;20478;-77
2022/05/03 02:30:43;;;;;;;11.80;8.68;;;19.10;57.30;;;;;;4972743;28;20514;-77
2022/05/03 02:33:09;;;;;;;10.43;8.93;;;19.00;57.40;;;;;;4971273;28;20417;-79
2022/05/03 02:35:35;;;;;;;11.35;8.50;;;18.90;57.20;;;;;;4956006;28;20548;-82
2022/05/03 02:38:05;;;;;;;10.45;8.25;;;19.00;57.10;;;;;;4968988;28;20023;-82
2022/05/03 02:40:32;;;;;;;9.23;7.45;;;19.00;56.40;;;;;;4971240;28;20478;-82
2022/05/03 02:42:58;;;;;;;10.73;8.25;;;19.10;56.10;;;;;;4972106;28;20038;-79
2022/05/03 02:45:24;;;;;;;10.15;7.78;;;18.90;56.40;;;;;;4956666;28;20421;-83
2022/05/03 02:48:18;;;;;;;8.07;6.85;;;18.90;56.40;;;;;;4971220;28;20035;-82
2022/05/03 02:50:56;;;;;;;10.52;7.68;;;18.80;56.40;;;;;;4971268;28;20042;-82
2022/05/03 02:53:54;;;;;;;9.30;7.60;;;19.10;56.50;;;;;;4964992;28;20024;-81
2022/05/03 02:56:36;;;;;;;10.98;7.80;;;19.30;55.80;;;;;;5012295;28;20124;-83
2022/05/03 02:59:05;;;;;;;9.70;7.50;;;19.60;55.30;;;;;;5045563;28;20025;-82
2022/05/03 03:01:50;;;;;;;10.13;7.63;;;19.60;55.20;;;;;;5033434;28;20022;-82
2022/05/03 03:04:36;;;;;;;10.63;8.30;;;19.70;54.80;;;;;;5033863;28;20102;-82
2022/05/03 03:07:04;;;;;;;10.18;7.60;;;19.80;54.90;;;;;;5034282;28;20021;-83
2022/05/03 03:09:47;;;;;;;9.93;8.48;;;19.90;54.70;;;;;;5052821;28;20095;-86
2022/05/03 03:12:49;;;;;;;11.80;7.93;;;19.80;54.90;;;;;;5043924;28;20111;-84
2022/05/03 03:15:18;;;;;;;11.73;8.63;;;19.80;54.90;;;;;;5032193;28;20017;-84
2022/05/03 03:17:48;;;;;;;9.02;7.90;;;19.60;55.30;;;;;;5021693;28;20468;-81
2022/05/03 03:20:17;;;;;;;8.93;7.65;;;19.40;55.90;;;;;;5052240;28;20108;-82
2022/05/03 03:22:47;;;;;;;10.00;8.30;;;19.30;55.90;;;;;;5051210;28;20352;-84
2022/05/03 03:25:16;;;;;;;10.07;7.55;;;19.10;56.20;;;;;;5051973;28;20439;-83
2022/05/03 03:27:53;;;;;;;11.57;8.07;;;19.00;56.30;;;;;;5034380;28;20371;-84
2022/05/03 03:30:20;;;;;;;10.05;7.88;;;19.00;56.60;;;;;;5035747;28;20506;-84
2022/05/03 03:32:53;;;;;;;10.23;8.20;;;18.90;57.10;;;;;;5033682;28;20025;-82
2022/05/03 03:35:20;;;;;;;11.38;8.15;;;18.80;57.40;;;;;;5034437;28;20590;-84
2022/05/03 03:37:49;;;;;;;10.52;8.43;;;18.70;57.50;;;;;;5034805;28;20055;-83
2022/05/03 03:40:16;;;;;;;11.10;8.30;;;18.70;57.70;;;;;;5052574;28;20025;-81
2022/05/03 03:42:44;;;;;;;11.43;8.57;;;18.80;57.40;;;;;;5035100;28;20078;-81
2022/05/03 03:45:11;;;;;;;12.95;8.50;;;19.10;57.10;;;;;;5050554;28;20074;-82
2022/05/03 03:47:39;;;;;;;13.45;9.00;;;18.90;57.50;;;;;;5034612;28;20033;-84
2022/05/03 03:50:06;;;;;;;10.95;8.38;;;19.00;57.40;;;;;;5033760;28;20057;-84
2022/05/03 03:52:34;;;;;;;11.25;8.15;;;19.10;57.30;;;;;;5049564;28;20016;-87
2022/05/03 03:55:04;;;;;;;10.80;7.95;;;19.20;57.30;;;;;;5015468;28;20032;-82
2022/05/03 03:57:30;;;;;;;12.13;8.77;;;19.10;57.40;;;;;;5021098;28;20028;-85
2022/05/03 04:00:01;;;;;;;10.50;8.13;;;19.30;57.10;;;;;;5051608;28;20036;-83
2022/05/03 04:02:27;;;;;;;9.70;8.13;;;19.50;56.70;;;;;;5050355;28;20021;-84
2022/05/03 04:04:54;;;;;;;10.27;7.88;;;19.60;56.60;;;;;;5028611;28;20037;-83
2022/05/03 04:07:20;;;;;;;10.98;8.27;;;19.70;56.70;;;;;;5045009;28;20048;-80
2022/05/03 04:09:46;;;;;;;10.10;8.40;;;19.70;56.80;;;;;;5037256;28;20344;-78
2022/05/03 04:12:12;;;;;;;9.65;8.07;;;19.40;57.40;;;;;;5037326;28;20036;-77
2022/05/03 04:14:38;;;;;;;11.68;8.30;;;19.20;58.10;;;;;;5055748;28;20020;-78
2022/05/03 04:17:03;;;;;;;9.93;8.45;;;19.20;57.80;;;;;;5037340;28;20025;-81
2022/05/03 04:19:29;;;;;;;11.25;8.82;;;19.20;58.20;;;;;;5055415;28;20017;-80
2022/05/03 04:21:55;;;;;;;12.50;8.52;;;19.20;57.80;;;;;;5019315;28;20040;-80
2022/05/03 04:24:25;;;;;;;10.95;8.68;;;19.40;57.60;;;;;;5053294;28;20029;-82
2022/05/03 04:26:50;;;;;;;28.40;17.40;;;19.70;56.90;;;;;;5030989;28;20033;-81
2022/05/03 04:29:20;;;;;;;16.00;12.77;;;19.90;56.50;;;;;;5023154;28;20032;-84
2022/05/03 04:31:46;;;;;;;11.85;10.02;;;20.20;56.00;;;;;;5025973;28;20084;-83
2022/05/03 04:34:11;;;;;;;10.23;7.82;;;20.20;55.60;;;;;;5050219;28;20858;-81
2022/05/03 04:36:37;;;;;;;13.05;8.98;;;20.10;55.30;;;;;;5043237;28;20025;-83
2022/05/03 04:39:03;;;;;;;9.20;7.70;;;20.20;55.00;;;;;;5034846;28;20518;-83
2022/05/03 04:41:29;;;;;;;8.82;7.78;;;19.90;55.40;;;;;;5050895;28;20021;-84
2022/05/03 04:43:56;;;;;;;9.00;7.72;;;19.90;55.40;;;;;;5032425;28;20024;-78
2022/05/03 04:46:21;;;;;;;9.90;7.45;;;20.10;55.10;;;;;;5022655;28;20044;-76
2022/05/03 04:48:47;;;;;;;12.43;7.65;;;20.50;54.70;;;;;;5034682;28;20051;-83
2022/05/03 04:51:17;;;;;;;8.60;6.97;;;20.80;54.30;;;;;;5035734;28;20032;-85
2022/05/03 04:53:43;;;;;;;11.13;8.18;;;20.80;54.20;;;;;;5055143;28;20112;-83
2022/05/03 04:56:22;;;;;;;9.05;7.32;;;20.50;54.90;;;;;;5029485;28;20887;-79
2022/05/03 04:58:49;;;;;;;9.65;7.05;;;20.30;55.70;;;;;;5045836;28;20020;-82
2022/05/03 05:01:15;;;;;;;10.05;8.00;;;20.50;55.30;;;;;;5034069;28;20021;-83
2022/05/03 05:03:42;;;;;;;9.80;7.65;;;20.70;55.10;;;;;;5053115;28;20017;-78
2022/05/03 05:06:09;;;;;;;11.10;7.35;;;20.70;55.30;;;;;;5032896;28;20044;-82
2022/05/03 05:08:39;;;;;;;7.72;6.82;;;20.80;54.60;;;;;;5027496;28;20025;-79
2022/05/03 05:11:05;;;;;;;8.93;7.00;;;20.90;54.70;;;;;;5032511;28;20093;-83
2022/05/03 05:13:32;;;;;;;8.60;6.10;;;21.00;53.80;;;;;;5034759;28;20029;-81
2022/05/03 05:15:57;;;;;;;8.63;6.20;;;21.20;53.40;;;;;;5032931;28;20028;-80
2022/05/03 05:18:24;;;;;;;8.30;6.40;;;21.30;53.50;;;;;;5022971;28;20017;-83
2022/05/03 05:20:50;;;;;;;7.32;6.10;;;21.30;54.00;;;;;;5051569;28;20056;-78
2022/05/03 05:23:16;;;;;;;9.50;5.47;;;21.40;53.10;;;;;;5037434;28;20016;-84
2022/05/03 05:25:42;;;;;;;11.40;8.32;;;21.70;51.00;;;;;;5016009;28;20034;-82
2022/05/03 05:28:07;;;;;;;10.48;7.82;;;21.90;50.50;;;;;;5021518;28;20119;-81
2022/05/03 05:30:33;;;;;;;10.38;7.38;;;22.10;51.20;;;;;;5033590;28;20143;-79
2022/05/03 05:32:59;;;;;;;9.00;6.93;;;22.00;50.70;;;;;;5032734;28;20354;-82
2022/05/03 05:35:24;;;;;;;8.45;5.82;;;22.00;51.30;;;;;;5031658;28;20032;-78
2022/05/03 05:37:50;;;;;;;8.18;6.10;;;22.20;51.40;;;;;;5033642;28;20056;-78
2022/05/03 05:40:16;;;;;;;8.63;5.90;;;22.40;51.20;;;;;;5032494;28;20021;-77
2022/05/03 05:42:42;;;;;;;9.48;5.93;;;22.50;51.70;;;;;;5032596;28;20021;-84
2022/05/03 05:45:08;;;;;;;10.90;5.82;;;22.70;51.70;;;;;;5031984;28;20037;-79
2022/05/03 05:47:33;;;;;;;14.93;6.85;;;22.80;52.00;;;;;;5032626;28;20014;-82
2022/05/03 05:49:59;;;;;;;11.95;6.13;;;22.90;50.90;;;;;;5033222;28;20059;-78
2022/05/03 05:55:09;;;;;;;6.88;5.82;;;22.90;52.00;;;;;;5033201;28;20080;-79
2022/05/03 05:57:35;;;;;;;10.02;6.53;;;22.90;52.40;;;;;;5033212;28;20033;-78
2022/05/03 06:00:00;;;;;;;8.52;6.70;;;22.90;52.30;;;;;;5032055;28;20021;-76
2022/05/03 06:02:27;;;;;;;8.65;6.55;;;23.20;51.60;;;;;;5034084;28;20025;-75
2022/05/03 06:04:53;;;;;;;9.48;5.80;;;23.40;51.90;;;;;;5033749;28;20026;-80
2022/05/03 06:07:19;;;;;;;14.45;7.25;;;23.50;52.00;;;;;;5033382;28;20518;-77
2022/05/03 06:09:45;;;;;;;7.70;6.03;;;23.40;51.90;;;;;;5033164;28;20376;-76
2022/05/03 06:12:11;;;;;;;7.47;5.93;;;23.20;50.80;;;;;;5031834;28;20018;-76
2022/05/03 06:14:36;;;;;;;7.07;5.70;;;23.30;50.10;;;;;;5033180;28;20025;-79
2022/05/03 06:17:03;;;;;;;6.70;5.70;;;22.40;48.80;;;;;;5015337;28;20108;-83
2022/05/03 06:19:28;;;;;;;6.55;5.40;;;22.10;50.20;;;;;;5032414;28;20104;-79
2022/05/03 06:21:54;;;;;;;7.63;5.60;;;22.50;50.30;;;;;;5033022;28;20097;-79
2022/05/03 06:24:20;;;;;;;8.18;5.55;;;23.10;48.90;;;;;;5032578;28;20363;-77
2022/05/03 06:26:47;;;;;;;6.97;5.40;;;23.50;47.50;;;;;;5032960;28;20052;-76
2022/05/03 06:29:12;;;;;;;7.47;5.55;;;23.40;48.60;;;;;;5015277;28;20029;-80
2022/05/03 06:31:39;;;;;;;7.45;5.43;;;23.10;48.40;;;;;;5030843;28;20431;-78
2022/05/03 06:34:08;;;;;;;8.32;5.57;;;23.10;49.10;;;;;;5033089;28;20030;-78
2022/05/03 06:36:35;;;;;;;8.45;5.47;;;23.30;48.50;;;;;;5031643;28;20469;-78
2022/05/03 06:39:02;;;;;;;7.97;5.47;;;23.90;48.40;;;;;;5031421;28;20021;-77
2022/05/03 06:41:27;;;;;;;7.47;5.40;;;24.40;47.90;;;;;;5032804;28;20360;-79
2022/05/03 06:43:56;;;;;;;7.88;5.35;;;24.70;46.00;;;;;;5033092;28;20456;-76
2022/05/03 06:46:22;;;;;;;6.78;5.20;;;24.00;46.40;;;;;;5032570;28;20028;-78
2022/05/03 06:48:48;;;;;;;7.03;5.10;;;23.90;47.40;;;;;;5031583;28;20013;-80
2022/05/03 06:51:13;;;;;;;7.30;5.45;;;23.70;46.90;;;;;;5032807;28;20411;-76
2022/05/03 06:53:39;;;;;;;7.60;4.97;;;22.40;48.40;;;;;;5032668;28;20368;-78
2022/05/03 06:56:05;;;;;;;8.38;5.68;;;22.20;50.00;;;;;;5031750;28;20018;-81
2022/05/03 06:58:31;;;;;;;8.65;4.93;;;22.00;49.60;;;;;;5015009;28;20025;-81
2022/05/03 07:00:56;;;;;;;6.90;5.07;;;22.10;50.40;;;;;;5031424;28;20013;-76
2022/05/03 07:03:22;;;;;;;6.68;5.18;;;23.10;49.80;;;;;;5032504;28;20032;-80
2022/05/03 07:05:48;;;;;;;8.20;5.57;;;23.90;48.70;;;;;;5032544;28;20031;-76
2022/05/03 07:08:14;;;;;;;6.85;5.05;;;24.40;47.30;;;;;;5033589;28;20017;-78
2022/05/03 07:10:41;;;;;;;6.75;4.82;;;24.10;47.00;;;;;;5032129;28;20035;-78
2022/05/03 07:13:13;;;;;;;7.18;5.03;;;24.00;48.00;;;;;;5032665;28;20060;-77
2022/05/03 07:15:38;;;;;;;6.45;5.20;;;23.90;47.90;;;;;;5031621;28;20028;-81
2022/05/03 07:23:32;;;;;;;6.78;5.18;;;24.80;46.80;;;;;;5032600;28;20800;-77
2022/05/03 07:25:59;;;;;;;8.23;5.10;;;23.70;48.60;;;;;;5032380;28;20037;-80
2022/05/03 07:28:25;;;;;;;6.32;5.07;;;23.10;48.70;;;;;;5031193;28;20029;-78
2022/05/03 07:30:51;;;;;;;7.90;5.03;;;23.00;49.50;;;;;;5015000;28;20025;-78
2022/05/03 07:33:17;;;;;;;6.57;4.75;;;23.40;47.70;;;;;;5031159;28;20018;-76
2022/05/03 07:35:43;;;;;;;10.40;5.07;;;23.80;48.20;;;;;;5014990;28;20021;-80
2022/05/03 07:38:09;;;;;;;7.53;5.05;;;24.20;47.40;;;;;;5031197;28;20025;-78
2022/05/03 07:40:35;;;;;;;8.10;5.18;;;24.10;48.20;;;;;;5014816;28;20075;-78
2022/05/03 07:43:03;;;;;;;7.20;4.88;;;24.60;46.40;;;;;;5033754;28;20100;-79
2022/05/03 07:45:29;;;;;;;8.23;4.70;;;24.20;47.00;;;;;;5035802;28;20553;-78
2022/05/03 07:47:55;;;;;;;6.55;4.53;;;23.70;47.40;;;;;;5034839;28;20021;-78
2022/05/03 07:50:20;;;;;;;10.13;5.10;;;23.80;48.90;;;;;;5018368;28;20444;-75
2022/05/03 07:52:46;;;;;;;7.22;4.88;;;24.40;48.30;;;;;;5035802;28;20362;-76
2022/05/03 07:55:12;;;;;;;10.07;4.78;;;25.10;46.00;;;;;;5035622;28;20040;-78
2022/05/03 07:57:37;;;;;;;7.32;4.90;;;25.50;46.20;;;;;;5017684;28;20456;-78
2022/05/03 08:00:07;;;;;;;7.03;4.88;;;25.70;45.10;;;;;;5017901;28;20029;-75
2022/05/03 08:02:33;;;;;;;6.40;4.97;;;26.20;46.30;;;;;;5036285;28;20018;-78
2022/05/03 08:04:59;;;;;;;6.97;4.35;;;26.70;45.30;;;;;;5034486;28;20034;-80
2022/05/03 08:07:25;;;;;;;7.35;4.90;;;27.10;44.30;;;;;;5035666;28;20026;-76
2022/05/03 08:09:50;;;;;;;7.55;4.47;;;26.70;44.20;;;;;;5035566;28;20083;-78
2022/05/03 08:12:17;;;;;;;7.47;4.70;;;26.90;44.20;;;;;;5034519;28;20021;-77
2022/05/03 08:14:43;;;;;;;4.65;3.60;;;26.80;43.60;;;;;;5035580;28;20017;-78
2022/05/03 08:17:08;;;;;;;6.50;4.07;;;26.70;42.30;;;;;;5035655;28;20025;-80
2022/05/03 08:19:35;;;;;;;5.05;3.63;;;26.40;42.00;;;;;;5017817;28;20017;-77
2022/05/03 08:22:01;;;;;;;6.18;3.85;;;26.10;43.60;;;;;;5034314;28;20111;-76
2022/05/03 08:24:27;;;;;;;6.30;4.30;;;25.60;43.20;;;;;;5035048;28;20049;-76
2022/05/03 08:26:53;;;;;;;5.25;3.53;;;26.00;44.20;;;;;;5035130;28;20100;-81
2022/05/03 08:29:19;;;;;;;4.65;3.50;;;26.70;43.20;;;;;;5017882;28;20033;-76
2022/05/03 08:31:45;;;;;;;6.82;3.90;;;26.90;43.20;;;;;;5017502;28;20021;-76
2022/05/03 08:34:11;;;;;;;10.25;4.00;;;27.20;43.10;;;;;;5033861;28;20021;-76
2022/05/03 08:36:38;;;;;;;6.07;3.40;;;27.70;42.80;;;;;;5035320;28;20018;-90
2022/05/03 08:42:02;;;;;;;4.45;3.10;;;28.10;41.80;;;;;;5036209;28;20041;-83
2022/05/03 08:44:29;;;;;;;3.45;2.50;;;28.30;40.80;;;;;;5035037;28;20037;-77
2022/05/03 08:46:56;;;;;;;6.90;3.17;;;28.60;41.20;;;;;;5033954;28;20381;-78
2022/05/03 08:49:25;;;;;;;4.38;3.10;;;28.80;40.40;;;;;;5034843;28;20028;-80
2022/05/03 08:51:52;;;;;;;4.72;2.80;;;28.80;41.60;;;;;;5033948;28;20079;-75
2022/05/03 08:54:20;;;;;;;4.60;2.95;;;28.80;40.80;;;;;;5033763;28;20029;-82
2022/05/03 08:56:47;;;;;;;6.57;3.17;;;28.80;39.60;;;;;;5033704;28;20422;-83
2022/05/03 08:59:13;;;;;;;5.00;3.03;;;29.00;38.90;;;;;;5035471;28;20109;-78
2022/05/03 09:01:39;;;;;;;9.25;3.17;;;28.60;40.70;;;;;;5033412;28;20376;-76
2022/05/03 09:04:06;;;;;;;6.07;2.72;;;29.00;40.60;;;;;;5033285;28;20021;-80
2022/05/03 09:06:50;;;;;;;5.55;2.60;;;28.90;39.70;;;;;;5035206;28;20017;-77
2022/05/03 09:09:19;;;;;;;4.32;2.75;;;28.60;38.50;;;;;;5033186;28;20025;-77
2022/05/03 09:11:47;;;;;;;6.68;2.53;;;28.50;39.80;;;;;;5033414;28;20028;-78
2022/05/03 09:14:27;;;;;;;5.13;2.63;;;28.80;39.60;;;;;;5034619;28;20021;-81
2022/05/03 09:16:53;;;;;;;4.07;2.40;;;28.60;37.70;;;;;;5034213;28;20032;-76
2022/05/03 09:19:25;;;;;;;5.07;2.65;;;28.20;38.30;;;;;;5034274;28;20209;-77
2022/05/03 09:24:58;;;;;;;5.10;2.70;;;29.20;39.10;;;;;;5034352;28;20499;-77
2022/05/03 09:27:25;;;;;;;4.82;2.80;;;29.80;37.10;;;;;;5036454;28;20018;-80
2022/05/03 09:30:10;;;;;;;5.78;2.50;;;30.20;38.90;;;;;;5018208;28;20266;-80
2022/05/03 09:32:42;;;;;;;5.57;2.90;;;30.60;38.10;;;;;;5034917;28;20464;-77
2022/05/03 09:35:34;;;;;;;4.60;3.00;;;30.90;38.30;;;;;;5034357;28;20025;-85
2022/05/03 09:38:04;;;;;;;5.03;2.80;;;31.10;38.60;;;;;;5034864;28;20364;-81
2022/05/03 09:40:40;;;;;;;4.22;3.10;;;29.50;38.30;;;;;;5032793;28;20536;-77
2022/05/03 09:43:05;;;;;;;5.43;3.50;;;29.70;36.50;;;;;;5033933;28;20342;-81
2022/05/03 09:45:31;;;;;;;4.07;3.00;;;29.80;36.90;;;;;;5032428;28;20503;-78
2022/05/03 09:47:59;;;;;;;5.03;3.20;;;29.40;35.80;;;;;;5016031;28;20064;-80
2022/05/03 09:50:41;;;;;;;3.95;2.90;;;29.10;37.40;;;;;;5033768;28;20108;-81
2022/05/03 09:53:18;;;;;;;4.63;3.00;;;29.30;38.70;;;;;;5033717;28;20036;-82
2022/05/03 09:55:47;;;;;;;5.55;3.10;;;30.10;39.30;;;;;;5033821;28;20025;-80
2022/05/03 09:58:14;;;;;;;3.90;2.67;;;30.70;38.70;;;;;;5033369;28;20033;-78
2022/05/03 10:00:46;;;;;;;5.65;3.42;;;30.80;40.00;;;;;;5016461;28;20159;-86
2022/05/03 10:03:12;;;;;;;5.68;3.10;;;29.60;40.30;;;;;;5033790;28;20047;-83
2022/05/03 10:05:40;;;;;;;4.88;2.78;;;29.00;40.80;;;;;;5033025;28;20035;-81
2022/05/03 10:08:10;;;;;;;13.15;3.83;;;29.20;41.50;;;;;;5033490;28;20104;-85
2022/05/03 10:10:40;;;;;;;9.88;3.63;;;29.60;47.20;;;;;;5032400;28;20032;-81
2022/05/03 10:13:06;;;;;;;7.10;3.38;;;29.00;44.00;;;;;;5032377;28;20025;-79
2022/05/03 10:21:27;;;;;;;5.38;4.03;;;25.10;50.10;;;;;;4973296;28;20109;-82
2022/05/03 10:24:09;;;;;;;9.55;4.78;;;25.50;50.10;;;;;;4956628;28;20470;-79
2022/05/03 10:27:01;;;;;;;8.30;4.18;;;25.60;54.00;;;;;;4972794;28;20043;-80
2022/05/03 10:29:37;;;;;;;5.78;3.78;;;25.70;54.40;;;;;;4972838;28;20030;-85
2022/05/03 10:32:09;;;;;;;6.95;4.30;;;25.50;51.60;;;;;;4956669;28;20485;-93
2022/05/03 10:34:43;;;;;;;4.50;3.03;;;25.30;54.80;;;;;;4972609;28;20035;-82
2022/05/03 10:37:20;;;;;;;5.05;3.22;;;25.50;50.00;;;;;;4972262;28;20050;-81
2022/05/03 10:39:57;;;;;;;5.18;3.78;;;26.10;52.10;;;;;;4956043;28;20042;-79
2022/05/03 10:42:30;;;;;;;5.20;3.50;;;26.70;50.30;;;;;;4972080;28;20031;-82
2022/05/03 10:45:03;;;;;;;4.28;3.00;;;26.90;52.30;;;;;;4972520;28;20051;-85
2022/05/03 10:47:49;;;;;;;5.72;2.67;;;26.20;47.90;;;;;;4972311;28;20019;-81
2022/05/03 10:50:17;;;;;;;4.18;2.50;;;26.20;45.20;;;;;;4972501;28;20027;-79
2022/05/03 10:52:56;;;;;;;4.07;2.53;;;26.10;47.40;;;;;;4971680;28;20478;-81
2022/05/03 10:55:27;;;;;;;4.85;2.60;;;26.10;42.20;;;;;;5004450;28;20037;-79
2022/05/03 10:58:19;;;;;;;4.65;2.60;;;26.30;41.00;;;;;;5031500;28;20017;-80
2022/05/03 11:01:20;;;;;;;6.63;3.00;;;26.60;42.70;;;;;;5031395;28;20036;-77
2022/05/03 11:03:48;;;;;;;;;;;27.20;49.80;;;;;;5033738;28;20024;-82
2022/05/03 11:06:22;;;;;;;5.88;2.70;;;27.30;44.50;;;;;;5032460;28;19924;-80
2022/05/03 11:11:42;;;;;;;7.93;3.90;;;27.70;44.10;;;;;;5032851;28;20083;-78
2022/05/03 11:16:43;;;;;;;4.50;3.15;;;27.60;44.20;;;;;;5033264;28;20539;-78
2022/05/03 11:19:15;;;;;;;6.50;2.83;;;27.80;45.70;;;;;;5036353;28;20029;-78
2022/05/03 11:21:42;;;;;;;4.03;2.70;;;28.10;44.40;;;;;;5036381;28;20022;-78
2022/05/03 11:24:22;;;;;;;4.47;2.97;;;28.30;41.80;;;;;;5036568;28;20403;-78
2022/05/03 11:26:50;;;;;;;3.90;2.65;;;28.60;41.00;;;;;;5035050;28;20021;-77
2022/05/03 11:29:17;;;;;;;6.28;3.50;;;28.80;41.30;;;;;;5035442;28;20025;-85
2022/05/03 11:31:50;;;;;;;5.47;3.15;;;28.80;42.10;;;;;;5035151;28;20108;-80
2022/05/03 11:34:18;;;;;;;4.30;3.10;;;28.00;45.20;;;;;;5035106;28;20018;-78
2022/05/03 11:36:47;;;;;;;6.57;3.30;;;27.70;45.70;;;;;;5035049;28;20033;-80
2022/05/03 11:39:14;;;;;;;4.88;3.40;;;27.40;45.30;;;;;;5036037;28;20024;-80
2022/05/03 11:41:42;;;;;;;5.35;3.25;;;27.50;45.70;;;;;;5036637;28;20491;-77
2022/05/03 11:44:09;;;;;;;5.60;3.03;;;27.00;45.00;;;;;;5036008;28;20487;-80
2022/05/03 11:46:37;;;;;;;7.22;3.90;;;26.90;47.20;;;;;;5034721;28;20045;-78
2022/05/03 11:49:06;;;;;;;7.22;3.20;;;27.00;45.70;;;;;;5018251;28;20087;-79
2022/05/03 11:57:10;;;;;;;6.35;3.13;;;27.00;44.70;;;;;;5035688;28;20036;-78
2022/05/03 11:59:36;;;;;;;4.63;3.28;;;27.30;44.90;;;;;;5035829;28;20036;-76
2022/05/03 12:02:15;;;;;;;4.88;3.03;;;27.40;44.60;;;;;;5035657;28;20075;-79
2022/05/03 12:05:17;;;;;;;5.25;2.70;;;27.30;44.20;;;;;;5036147;28;20067;-86
2022/05/03 12:07:54;;;;;;;4.00;2.55;;;27.50;45.50;;;;;;5031424;28;20029;-79
2022/05/03 12:10:20;;;;;;;5.72;2.50;;;27.60;43.90;;;;;;5035560;28;20096;-78
2022/05/03 12:13:05;;;;;;;5.38;3.05;;;27.90;43.20;;;;;;5035303;28;20092;-78
2022/05/03 12:15:32;;;;;;;5.43;2.65;;;28.30;43.20;;;;;;5034429;28;20017;-78
2022/05/03 12:18:11;;;;;;;5.20;2.90;;;28.20;40.80;;;;;;5033909;28;20018;-78
2022/05/03 12:20:51;;;;;;;4.05;2.40;;;28.10;41.80;;;;;;5017570;28;20028;-77
2022/05/03 12:23:22;;;;;;;5.37;2.90;;;28.30;41.70;;;;;;5033809;28;20376;-78
2022/05/03 12:25:56;;;;;;;6.07;2.70;;;28.40;41.00;;;;;;5035278;28;20038;-78
2022/05/03 12:28:54;;;;;;;4.43;2.60;;;28.30;40.90;;;;;;5034169;28;20037;-79
2022/05/03 12:31:21;;;;;;;4.93;2.40;;;28.30;41.70;;;;;;5017370;28;20037;-77
2022/05/03 12:33:50;;;;;;;3.67;2.30;;;28.60;41.00;;;;;;5035131;28;20475;-79
2022/05/03 12:36:36;;;;;;;5.60;2.67;;;28.60;40.50;;;;;;5034037;28;20345;-77
2022/05/03 12:39:18;;;;;;;3.63;2.55;;;28.60;40.70;;;;;;5033620;28;20017;-77
2022/05/03 12:41:56;;;;;;;3.63;2.42;;;28.90;39.90;;;;;;5033868;28;20018;-78
2022/05/03 12:44:22;;;;;;;5.00;2.53;;;28.80;39.30;;;;;;5034284;28;20025;-78
2022/05/03 12:46:50;;;;;;;4.97;2.50;;;29.20;40.50;;;;;;5017239;28;20152;-77
2022/05/03 12:49:16;;;;;;;5.60;2.50;;;29.10;40.50;;;;;;5017183;28;20021;-78
2022/05/03 12:51:47;;;;;;;3.40;2.40;;;29.30;39.60;;;;;;5034818;28;20359;-79
2022/05/03 12:54:14;;;;;;;4.70;2.50;;;29.30;40.30;;;;;;5034051;28;20028;-81
2022/05/03 12:59:25;;;;;;;4.28;2.50;;;28.90;39.10;;;;;;5034970;28;20491;-78
2022/05/03 13:01:54;;;;;;;4.40;2.80;;;28.90;40.30;;;;;;5034859;28;20072;-77
2022/05/03 13:04:20;;;;;;;3.78;2.60;;;29.00;41.30;;;;;;5032948;28;20021;-77
2022/05/03 13:06:46;;;;;;;4.28;2.58;;;29.40;41.70;;;;;;5034670;28;20021;-77
2022/05/03 13:09:13;;;;;;;3.88;2.55;;;29.70;38.70;;;;;;5034470;28;20043;-77
2022/05/03 13:11:39;;;;;;;4.10;2.80;;;30.00;39.10;;;;;;5034452;28;20084;-79
2022/05/03 13:14:09;;;;;;;3.42;2.30;;;29.90;38.10;;;;;;5034482;28;20052;-80
2022/05/03 13:16:35;;;;;;;3.30;2.20;;;29.90;36.50;;;;;;5034682;28;20064;-77
2022/05/03 13:19:02;;;;;;;3.95;2.40;;;30.00;36.60;;;;;;5034505;28;20021;-80
2022/05/03 13:21:27;;;;;;;5.25;2.67;;;29.50;35.60;;;;;;5032273;28;20029;-77
2022/05/03 13:23:53;;;;;;;6.57;2.90;;;28.80;37.80;;;;;;5032808;28;20033;-77
2022/05/03 13:26:22;;;;;;;3.83;2.78;;;29.00;38.00;;;;;;5031941;28;20033;-84
2022/05/03 13:28:48;;;;;;;4.35;2.20;;;29.30;38.50;;;;;;5024372;28;20032;-76
2022/05/03 13:31:14;;;;;;;6.05;2.30;;;29.30;37.20;;;;;;5033568;28;20025;-74
2022/05/03 13:33:40;;;;;;;6.60;2.83;;;29.40;38.20;;;;;;5037109;28;20036;-82
2022/05/03 13:41:35;;;;;;;5.65;3.25;;;28.70;39.60;;;;;;5033617;28;20052;-78
2022/05/03 13:44:02;;;;;;;4.47;3.25;;;28.00;41.30;;;;;;5033849;28;20009;-78
2022/05/03 13:46:28;;;;;;;5.18;2.97;;;28.10;40.90;;;;;;5033519;28;20048;-86
2022/05/03 13:48:54;;;;;;;5.75;2.70;;;28.00;39.80;;;;;;5015480;28;20071;-76
2022/05/03 13:51:20;;;;;;;5.18;3.55;;;28.30;38.70;;;;;;5033909;28;20025;-77